createdAt,value
2024-02-09T00:04:15.809Z,-3.90
2024-02-09T00:09:17.702Z,-4.00
2024-02-09T00:14:19.661Z,-3.90
2024-02-09T00:19:22.776Z,-4.00
2024-02-09T00:24:24.694Z,-3.90
2024-02-09T00:29:26.506Z,-4.00
2024-02-09T00:34:28.628Z,-3.90
2024-02-09T00:39:34.814Z,-3.90
2024-02-09T00:44:39.015Z,-3.80
2024-02-09T00:49:45.515Z,-3.70
2024-02-09T00:54:47.838Z,-3.60
2024-02-09T00:59:50.553Z,-3.70
2024-02-09T01:04:52.469Z,-3.60
2024-02-09T01:09:59.150Z,-3.60
2024-02-09T01:15:19.475Z,-3.60
2024-02-09T01:20:40.063Z,-3.60
2024-02-09T01:26:00.615Z,-3.60
2024-02-09T01:31:21.227Z,-3.60
2024-02-09T01:36:41.468Z,-3.70
2024-02-09T01:42:02.070Z,-3.70
2024-02-09T01:47:22.398Z,-3.70
2024-02-09T01:52:43.225Z,-3.80
2024-02-09T01:58:03.973Z,-3.60
2024-02-09T02:03:24.873Z,-3.60
2024-02-09T02:08:45.344Z,-3.70
2024-02-09T02:14:05.842Z,-3.70
2024-02-09T02:19:26.183Z,-3.70
2024-02-09T02:24:49.075Z,-3.70
2024-02-09T02:30:09.688Z,-3.80
2024-02-09T02:35:30.152Z,-3.80
2024-02-09T02:40:50.690Z,-4.00
2024-02-09T02:45:52.561Z,-4.20
2024-02-09T02:51:13.236Z,-4.10
2024-02-09T02:56:33.485Z,-4.30
2024-02-09T03:01:54.281Z,-4.30
2024-02-09T03:07:14.305Z,-4.40
2024-02-09T03:12:18.621Z,-4.40
2024-02-09T03:17:20.540Z,-4.50
2024-02-09T03:22:22.402Z,-4.40
2024-02-09T03:27:24.540Z,-4.40
2024-02-09T03:32:31.731Z,-4.60
2024-02-09T03:37:34.525Z,-4.60
2024-02-09T03:42:36.441Z,-4.60
2024-02-09T03:47:38.416Z,-4.50
2024-02-09T03:52:46.049Z,-4.60
2024-02-09T03:57:48.308Z,-4.70
2024-02-09T04:02:50.182Z,-4.70
2024-02-09T04:07:52.190Z,-4.80
2024-02-09T04:12:55.348Z,-4.90
2024-02-09T04:17:59.108Z,-4.90
2024-02-09T04:23:01.801Z,-5.00
2024-02-09T04:28:05.471Z,-5.00
2024-02-09T04:33:11.104Z,-4.90
2024-02-09T04:38:14.118Z,-5.00
2024-02-09T04:43:16.028Z,-5.00
2024-02-09T04:48:18.023Z,-5.10
2024-02-09T04:53:19.839Z,-5.20
2024-02-09T04:58:22.553Z,-5.20
2024-02-09T05:03:24.321Z,-5.10
2024-02-09T05:08:26.158Z,-5.00
2024-02-09T05:13:27.994Z,-4.90
2024-02-09T05:18:29.827Z,-5.10
2024-02-09T05:23:31.713Z,-5.10
2024-02-09T05:28:37.927Z,-5.10
2024-02-09T05:33:39.966Z,-5.10
2024-02-09T05:38:42.563Z,-5.10
2024-02-09T05:43:48.937Z,-5.10
2024-02-09T05:48:51.111Z,-5.00
2024-02-09T05:53:53.316Z,-5.10
2024-02-09T05:58:58.561Z,-5.10
2024-02-09T06:04:00.895Z,-5.00
2024-02-09T06:09:03.764Z,-5.20
2024-02-09T06:14:05.627Z,-5.10
2024-02-09T06:19:08.586Z,-5.30
2024-02-09T06:24:10.473Z,-5.30
2024-02-09T06:29:12.318Z,-5.20
2024-02-09T06:34:14.407Z,-5.40
2024-02-09T06:39:16.757Z,-5.30
2024-02-09T06:44:20.220Z,-5.30
2024-02-09T06:49:25.764Z,-5.40
2024-02-09T06:54:27.729Z,-5.30
2024-02-09T06:59:30.060Z,-5.50
2024-02-09T07:04:32.003Z,-5.40
2024-02-09T07:09:35.161Z,-5.30
2024-02-09T07:14:36.941Z,-5.30
2024-02-09T07:19:38.766Z,-5.20
2024-02-09T07:24:40.713Z,-5.20
2024-02-09T07:29:42.737Z,-5.20
2024-02-09T07:34:44.921Z,-5.20
2024-02-09T07:39:46.838Z,-5.30
2024-02-09T07:44:48.660Z,-5.00
2024-02-09T07:49:50.515Z,-5.00
2024-02-09T07:54:52.304Z,-5.00
2024-02-09T07:59:54.177Z,-5.00
2024-02-09T08:04:56.408Z,-5.10
2024-02-09T08:09:58.458Z,-5.00
2024-02-09T08:15:00.381Z,-4.70
2024-02-09T08:20:05.171Z,-4.10
2024-02-09T08:25:07.555Z,-3.80
2024-02-09T08:30:10.507Z,-3.50
2024-02-09T08:35:12.460Z,-3.50
2024-02-09T08:40:15.135Z,-3.70
2024-02-09T08:45:17.254Z,-3.90
2024-02-09T08:50:19.360Z,-3.90
2024-02-09T08:55:22.601Z,-3.60
2024-02-09T09:00:25.629Z,-3.20
2024-02-09T09:05:29.356Z,-2.60
2024-02-09T09:10:31.219Z,-2.90
2024-02-09T09:15:33.010Z,-3.50
2024-02-09T09:20:36.583Z,-3.50
2024-02-09T09:25:38.381Z,-3.30
2024-02-09T09:30:40.418Z,-3.40
2024-02-09T09:35:42.360Z,-3.20
2024-02-09T09:40:47.446Z,-3.20
2024-02-09T09:46:00.807Z,-3.10
2024-02-09T09:51:06.187Z,-3.10
2024-02-09T09:56:08.932Z,-3.40
2024-02-09T10:01:13.429Z,-3.20
2024-02-09T10:06:16.831Z,-3.30
2024-02-09T10:11:19.620Z,-3.10
2024-02-09T10:16:23.232Z,-3.20
2024-02-09T10:21:25.259Z,-3.10
2024-02-09T10:26:27.191Z,-3.10
2024-02-09T10:31:30.258Z,-2.60
2024-02-09T10:36:32.611Z,-2.60
2024-02-09T10:41:37.832Z,-3.10
2024-02-09T10:46:40.948Z,-3.10
2024-02-09T10:51:44.401Z,-3.40
2024-02-09T10:56:48.132Z,-3.20
2024-02-09T11:01:51.400Z,-2.80
2024-02-09T11:06:55.401Z,-2.30
2024-02-09T11:12:07.625Z,-2.50
2024-02-09T11:17:10.797Z,-2.70
2024-02-09T11:22:14.123Z,-2.40
2024-02-09T11:27:16.682Z,-2.70
2024-02-09T11:32:19.945Z,-2.70
2024-02-09T11:37:22.132Z,-2.50
2024-02-09T11:47:34.228Z,-2.60
2024-02-09T11:52:41.913Z,-2.50
2024-02-09T11:57:53.518Z,-2.50
2024-02-09T12:03:04.866Z,-2.60
2024-02-09T12:08:21.476Z,-2.70
2024-02-09T12:13:27.103Z,-2.70
2024-02-09T12:18:36.670Z,-2.50
2024-02-09T12:23:42.154Z,-2.60
2024-02-09T12:28:44.856Z,-2.60
2024-02-09T12:33:50.029Z,-2.50
2024-02-09T12:39:00.984Z,-2.50
2024-02-09T12:44:07.889Z,-2.60
2024-02-09T12:49:14.411Z,-2.20
2024-02-09T12:54:21.591Z,-2.60
2024-02-09T12:59:25.534Z,-2.70
2024-02-09T13:04:32.558Z,-2.50
2024-02-09T13:09:36.352Z,-2.20
2024-02-09T13:14:41.932Z,-2.30
2024-02-09T13:19:46.407Z,-2.50
2024-02-09T13:24:49.314Z,-2.70
2024-02-09T13:29:57.830Z,-2.70
2024-02-09T13:35:06.122Z,-2.70
2024-02-09T13:40:11.210Z,-2.60
2024-02-09T13:45:19.147Z,-2.90
2024-02-09T13:50:32.119Z,-2.90
2024-02-09T13:55:37.706Z,-3.00
2024-02-09T14:00:54.676Z,-2.90
2024-02-09T14:05:58.656Z,-2.90
2024-02-09T14:11:00.907Z,-3.00
2024-02-09T14:16:03.924Z,-2.90
2024-02-09T14:21:11.284Z,-2.90
2024-02-09T14:26:20.433Z,-3.10
2024-02-09T14:31:26.456Z,-3.20
2024-02-09T14:36:34.497Z,-3.30
2024-02-09T14:41:48.386Z,-3.20
2024-02-09T14:46:53.218Z,-3.20
2024-02-09T14:51:55.155Z,-3.20
2024-02-09T14:56:59.942Z,-3.20
2024-02-09T15:02:02.736Z,-3.20
2024-02-09T15:07:05.096Z,-3.30
2024-02-09T15:12:07.588Z,-3.20
2024-02-09T15:17:09.543Z,-3.30
2024-02-09T15:22:11.389Z,-3.40
2024-02-09T15:27:14.948Z,-3.40
2024-02-09T15:32:17.980Z,-3.40
2024-02-09T15:37:19.860Z,-3.40
2024-02-09T15:42:21.790Z,-3.40
2024-02-09T15:47:24.797Z,-3.40
2024-02-09T15:52:28.622Z,-3.40
2024-02-09T15:57:30.923Z,-3.40
2024-02-09T16:02:34.273Z,-3.40
2024-02-09T16:07:36.158Z,-3.40
2024-02-09T16:12:37.987Z,-3.40
2024-02-09T16:17:40.603Z,-3.40
2024-02-09T16:22:43.399Z,-3.50
2024-02-09T16:27:50.597Z,-3.40
2024-02-09T16:32:52.837Z,-3.50
2024-02-09T16:37:55.818Z,-3.40
2024-02-09T16:42:57.610Z,-3.40
2024-02-09T16:47:59.630Z,-3.50
2024-02-09T16:53:01.696Z,-3.50
2024-02-09T16:58:05.556Z,-3.60
2024-02-09T17:03:07.525Z,-3.60
2024-02-09T17:08:09.489Z,-3.70
2024-02-09T17:13:13.105Z,-3.70
2024-02-09T17:18:14.967Z,-3.70
2024-02-09T17:23:16.918Z,-3.80
2024-02-09T17:28:19.010Z,-3.90
2024-02-09T17:33:21.534Z,-3.90
2024-02-09T17:38:23.720Z,-3.90
2024-02-09T17:43:25.572Z,-3.90
2024-02-09T17:48:27.490Z,-4.00
2024-02-09T17:53:29.476Z,-4.00
2024-02-09T17:58:31.871Z,-3.90
2024-02-09T18:03:35.213Z,-3.90
2024-02-09T18:08:39.507Z,-3.80
2024-02-09T18:13:41.366Z,-3.80
2024-02-09T18:18:43.836Z,-3.80
2024-02-09T18:23:46.653Z,-3.80
2024-02-09T18:28:48.626Z,-3.80
2024-02-09T18:33:50.519Z,-3.70
2024-02-09T18:38:55.779Z,-3.80
2024-02-09T18:43:58.501Z,-3.70
2024-02-09T18:49:00.331Z,-3.80
2024-02-09T18:54:02.226Z,-3.80
2024-02-09T18:59:04.214Z,-3.80
2024-02-09T19:04:06.083Z,-3.90
2024-02-09T19:09:10.335Z,-3.80
2024-02-09T19:14:13.924Z,-3.80
2024-02-09T19:19:18.522Z,-3.90
2024-02-09T19:24:20.769Z,-3.90
2024-02-09T19:29:23.259Z,-4.00
2024-02-09T19:34:27.072Z,-4.10
2024-02-09T19:39:29.002Z,-4.10
2024-02-09T19:44:31.353Z,-4.10
2024-02-09T19:49:33.334Z,-4.10
2024-02-09T19:54:36.232Z,-4.10
2024-02-09T19:59:38.250Z,-4.20
2024-02-09T20:04:40.936Z,-4.10
2024-02-09T20:09:43.625Z,-4.10
2024-02-09T20:14:45.423Z,-4.10
2024-02-09T20:19:47.900Z,-4.10
2024-02-09T20:24:50.487Z,-4.10
2024-02-09T20:29:52.343Z,-4.20
2024-02-09T20:34:55.250Z,-4.30
2024-02-09T20:39:57.291Z,-4.50
2024-02-09T20:44:59.693Z,-4.70
2024-02-09T20:50:03.544Z,-4.70
2024-02-09T20:55:06.116Z,-4.80
2024-02-09T21:00:08.509Z,-5.00
2024-02-09T21:05:13.104Z,-5.00
2024-02-09T21:10:16.053Z,-5.10
2024-02-09T21:15:20.714Z,-5.20
2024-02-09T21:20:22.826Z,-5.30
2024-02-09T21:25:25.470Z,-5.40
2024-02-09T21:30:27.658Z,-5.40
2024-02-09T21:35:32.812Z,-5.40
2024-02-09T21:40:36.364Z,-5.50
2024-02-09T21:45:40.836Z,-5.60
2024-02-09T21:50:42.732Z,-5.70
2024-02-09T21:55:50.452Z,-5.60
2024-02-09T22:00:53.149Z,-5.60
2024-02-09T22:05:57.052Z,-5.60
2024-02-09T22:10:59.656Z,-5.60
2024-02-09T22:16:02.436Z,-5.60
2024-02-09T22:21:09.402Z,-5.50
2024-02-09T22:26:14.523Z,-5.50
2024-02-09T22:31:16.575Z,-5.50
2024-02-09T22:36:19.227Z,-5.40
2024-02-09T22:41:21.987Z,-5.20
2024-02-09T22:46:24.660Z,-5.30
2024-02-09T22:51:27.636Z,-5.20
2024-02-09T22:56:29.486Z,-5.20
2024-02-09T23:01:31.549Z,-5.10
2024-02-09T23:06:33.721Z,-5.20
2024-02-09T23:11:35.649Z,-5.20
2024-02-09T23:16:37.464Z,-5.20
2024-02-09T23:21:40.839Z,-5.20
2024-02-09T23:26:42.748Z,-5.20
2024-02-09T23:31:44.671Z,-5.40
2024-02-09T23:36:48.424Z,-5.40
2024-02-09T23:41:50.570Z,-5.60
2024-02-09T23:46:52.691Z,-5.60
2024-02-09T23:51:55.778Z,-5.60
2024-02-09T23:56:57.584Z,-5.70
